sensor_id;sensor_type;location;lat;lon;timestamp;temperature;humidity
69393;SHT31;56582;44.624;20.378;2023-01-16T00:00:48;6.92;74.76
69393;SHT31;56582;44.624;20.378;2023-01-16T00:03:13;6.76;75.59
69393;SHT31;56582;44.624;20.378;2023-01-16T00:05:39;6.75;75.54
69393;SHT31;56582;44.624;20.378;2023-01-16T00:08:04;6.64;76.11
69393;SHT31;56582;44.624;20.378;2023-01-16T00:10:30;6.81;75.72
69393;SHT31;56582;44.624;20.378;2023-01-16T00:12:55;6.68;75.74
69393;SHT31;56582;44.624;20.378;2023-01-16T00:15:20;6.88;74.59
69393;SHT31;56582;44.624;20.378;2023-01-16T00:17:46;6.76;75.39
69393;SHT31;56582;44.624;20.378;2023-01-16T00:20:13;6.86;74.79
69393;SHT31;56582;44.624;20.378;2023-01-16T00:22:38;6.91;74.60
69393;SHT31;56582;44.624;20.378;2023-01-16T00:25:04;6.78;75.23
69393;SHT31;56582;44.624;20.378;2023-01-16T00:27:29;6.74;75.23
69393;SHT31;56582;44.624;20.378;2023-01-16T00:29:55;6.89;75.10
69393;SHT31;56582;44.624;20.378;2023-01-16T00:32:20;6.75;75.65
69393;SHT31;56582;44.624;20.378;2023-01-16T00:34:46;6.65;75.74
69393;SHT31;56582;44.624;20.378;2023-01-16T00:37:11;6.76;75.80
69393;SHT31;56582;44.624;20.378;2023-01-16T00:39:37;6.69;75.60
69393;SHT31;56582;44.624;20.378;2023-01-16T00:42:05;6.69;75.65
69393;SHT31;56582;44.624;20.378;2023-01-16T00:44:30;6.72;75.82
69393;SHT31;56582;44.624;20.378;2023-01-16T00:46:56;6.79;75.42
69393;SHT31;56582;44.624;20.378;2023-01-16T00:49:21;6.72;75.60
69393;SHT31;56582;44.624;20.378;2023-01-16T00:51:47;6.79;75.23
69393;SHT31;56582;44.624;20.378;2023-01-16T00:54:12;6.79;75.43
69393;SHT31;56582;44.624;20.378;2023-01-16T00:56:37;6.76;75.38
69393;SHT31;56582;44.624;20.378;2023-01-16T00:59:03;6.75;75.80
69393;SHT31;56582;44.624;20.378;2023-01-16T01:01:28;6.78;75.27
69393;SHT31;56582;44.624;20.378;2023-01-16T01:03:54;6.75;75.56
69393;SHT31;56582;44.624;20.378;2023-01-16T01:06:19;6.72;75.88
69393;SHT31;56582;44.624;20.378;2023-01-16T01:08:45;6.69;75.77
69393;SHT31;56582;44.624;20.378;2023-01-16T01:11:12;6.71;75.54
69393;SHT31;56582;44.624;20.378;2023-01-16T01:13:39;6.67;75.90
69393;SHT31;56582;44.624;20.378;2023-01-16T01:16:06;6.68;75.88
69393;SHT31;56582;44.624;20.378;2023-01-16T01:18:32;6.68;75.68
69393;SHT31;56582;44.624;20.378;2023-01-16T01:20:57;6.67;75.95
69393;SHT31;56582;44.624;20.378;2023-01-16T01:23:23;6.64;75.76
69393;SHT31;56582;44.624;20.378;2023-01-16T01:25:48;6.69;75.94
69393;SHT31;56582;44.624;20.378;2023-01-16T01:28:15;7.00;74.90
69393;SHT31;56582;44.624;20.378;2023-01-16T01:30:40;7.13;73.68
69393;SHT31;56582;44.624;20.378;2023-01-16T01:33:06;7.00;74.47
69393;SHT31;56582;44.624;20.378;2023-01-16T01:35:32;7.03;74.61
69393;SHT31;56582;44.624;20.378;2023-01-16T01:37:57;7.05;75.39
69393;SHT31;56582;44.624;20.378;2023-01-16T01:40:23;7.37;73.22
69393;SHT31;56582;44.624;20.378;2023-01-16T01:42:49;7.61;72.05
69393;SHT31;56582;44.624;20.378;2023-01-16T01:45:28;7.43;72.43
69393;SHT31;56582;44.624;20.378;2023-01-16T01:50:51;7.17;73.00
69393;SHT31;56582;44.624;20.378;2023-01-16T01:53:25;7.17;73.00
69393;SHT31;56582;44.624;20.378;2023-01-16T01:55:51;7.22;73.09
69393;SHT31;56582;44.624;20.378;2023-01-16T01:58:20;7.31;72.60
69393;SHT31;56582;44.624;20.378;2023-01-16T02:00:51;7.19;72.83
69393;SHT31;56582;44.624;20.378;2023-01-16T02:03:24;7.27;72.63
69393;SHT31;56582;44.624;20.378;2023-01-16T02:05:55;7.42;72.19
69393;SHT31;56582;44.624;20.378;2023-01-16T02:08:25;7.42;71.85
69393;SHT31;56582;44.624;20.378;2023-01-16T02:10:58;7.23;72.60
69393;SHT31;56582;44.624;20.378;2023-01-16T02:13:26;7.16;73.36
69393;SHT31;56582;44.624;20.378;2023-01-16T02:15:51;7.07;73.66
69393;SHT31;56582;44.624;20.378;2023-01-16T02:18:36;7.06;73.99
69393;SHT31;56582;44.624;20.378;2023-01-16T02:37:45;7.65;70.99
69393;SHT31;56582;44.624;20.378;2023-01-16T02:45:43;7.65;71.19
69393;SHT31;56582;44.624;20.378;2023-01-16T02:53:17;7.46;71.41
69393;SHT31;56582;44.624;20.378;2023-01-16T02:55:54;7.53;71.12
69393;SHT31;56582;44.624;20.378;2023-01-16T02:58:21;7.58;71.03
69393;SHT31;56582;44.624;20.378;2023-01-16T03:00:58;7.60;71.32
69393;SHT31;56582;44.624;20.378;2023-01-16T03:09:03;7.54;71.15
69393;SHT31;56582;44.624;20.378;2023-01-16T03:11:36;7.50;70.86
69393;SHT31;56582;44.624;20.378;2023-01-16T03:24:48;7.20;70.84
69393;SHT31;56582;44.624;20.378;2023-01-16T03:27:44;7.02;71.55
69393;SHT31;56582;44.624;20.378;2023-01-16T03:39:07;6.78;72.35
69393;SHT31;56582;44.624;20.378;2023-01-16T03:41:35;6.61;73.20
69393;SHT31;56582;44.624;20.378;2023-01-16T03:44:11;6.45;74.27
69393;SHT31;56582;44.624;20.378;2023-01-16T03:46:42;6.36;74.22
69393;SHT31;56582;44.624;20.378;2023-01-16T03:49:12;6.45;73.42
69393;SHT31;56582;44.624;20.378;2023-01-16T03:51:58;6.21;74.23
69393;SHT31;56582;44.624;20.378;2023-01-16T03:57:07;6.10;74.88
69393;SHT31;56582;44.624;20.378;2023-01-16T03:59:35;5.97;75.03
69393;SHT31;56582;44.624;20.378;2023-01-16T04:02:40;6.13;74.48
69393;SHT31;56582;44.624;20.378;2023-01-16T04:05:19;6.10;74.45
69393;SHT31;56582;44.624;20.378;2023-01-16T04:07:53;6.14;74.20
69393;SHT31;56582;44.624;20.378;2023-01-16T04:10:27;6.09;74.35
69393;SHT31;56582;44.624;20.378;2023-01-16T04:13:04;6.03;74.12
69393;SHT31;56582;44.624;20.378;2023-01-16T04:15:32;5.86;74.64
69393;SHT31;56582;44.624;20.378;2023-01-16T04:17:59;5.72;75.15
69393;SHT31;56582;44.624;20.378;2023-01-16T04:20:25;5.82;74.70
69393;SHT31;56582;44.624;20.378;2023-01-16T04:22:52;5.68;75.21
69393;SHT31;56582;44.624;20.378;2023-01-16T04:25:19;5.82;74.64
69393;SHT31;56582;44.624;20.378;2023-01-16T04:27:44;5.85;74.12
69393;SHT31;56582;44.624;20.378;2023-01-16T04:30:10;5.70;74.95
69393;SHT31;56582;44.624;20.378;2023-01-16T04:32:36;5.49;75.47
69393;SHT31;56582;44.624;20.378;2023-01-16T04:35:02;5.41;75.89
69393;SHT31;56582;44.624;20.378;2023-01-16T04:37:27;5.34;76.17
69393;SHT31;56582;44.624;20.378;2023-01-16T04:39:53;5.39;75.70
69393;SHT31;56582;44.624;20.378;2023-01-16T04:42:18;5.42;75.35
69393;SHT31;56582;44.624;20.378;2023-01-16T04:44:44;5.45;75.15
69393;SHT31;56582;44.624;20.378;2023-01-16T04:47:10;5.41;75.19
69393;SHT31;56582;44.624;20.378;2023-01-16T04:49:36;5.35;77.52
69393;SHT31;56582;44.624;20.378;2023-01-16T04:52:02;5.30;75.68
69393;SHT31;56582;44.624;20.378;2023-01-16T04:54:27;5.21;75.88
69393;SHT31;56582;44.624;20.378;2023-01-16T04:56:53;5.16;75.95
69393;SHT31;56582;44.624;20.378;2023-01-16T04:59:18;5.10;75.84
69393;SHT31;56582;44.624;20.378;2023-01-16T05:01:43;5.07;76.15
69393;SHT31;56582;44.624;20.378;2023-01-16T05:04:09;5.07;76.13
69393;SHT31;56582;44.624;20.378;2023-01-16T05:06:37;5.01;75.98
69393;SHT31;56582;44.624;20.378;2023-01-16T05:09:03;5.04;75.64
69393;SHT31;56582;44.624;20.378;2023-01-16T05:11:29;5.20;74.93
69393;SHT31;56582;44.624;20.378;2023-01-16T05:13:55;5.24;74.63
69393;SHT31;56582;44.624;20.378;2023-01-16T05:16:20;5.13;74.97
69393;SHT31;56582;44.624;20.378;2023-01-16T05:18:46;5.13;74.60
69393;SHT31;56582;44.624;20.378;2023-01-16T05:21:11;5.14;74.73
69393;SHT31;56582;44.624;20.378;2023-01-16T05:23:37;5.08;75.15
69393;SHT31;56582;44.624;20.378;2023-01-16T05:26:03;5.03;74.92
69393;SHT31;56582;44.624;20.378;2023-01-16T05:28:30;5.08;74.50
69393;SHT31;56582;44.624;20.378;2023-01-16T05:30:56;5.18;74.10
69393;SHT31;56582;44.624;20.378;2023-01-16T05:33:21;5.20;73.94
69393;SHT31;56582;44.624;20.378;2023-01-16T05:35:47;5.21;74.00
69393;SHT31;56582;44.624;20.378;2023-01-16T05:38:14;5.37;73.21
69393;SHT31;56582;44.624;20.378;2023-01-16T05:40:39;5.21;73.69
69393;SHT31;56582;44.624;20.378;2023-01-16T05:43:05;5.17;73.72
69393;SHT31;56582;44.624;20.378;2023-01-16T05:45:31;5.13;73.95
69393;SHT31;56582;44.624;20.378;2023-01-16T05:47:57;5.06;73.89
69393;SHT31;56582;44.624;20.378;2023-01-16T05:50:23;5.03;74.04
69393;SHT31;56582;44.624;20.378;2023-01-16T05:52:48;5.03;73.92
69393;SHT31;56582;44.624;20.378;2023-01-16T05:55:14;4.97;73.98
69393;SHT31;56582;44.624;20.378;2023-01-16T05:57:39;4.96;73.80
69393;SHT31;56582;44.624;20.378;2023-01-16T06:00:05;4.94;73.94
69393;SHT31;56582;44.624;20.378;2023-01-16T06:02:31;4.96;73.79
69393;SHT31;56582;44.624;20.378;2023-01-16T06:04:57;4.90;74.30
69393;SHT31;56582;44.624;20.378;2023-01-16T06:07:22;4.87;73.90
69393;SHT31;56582;44.624;20.378;2023-01-16T06:09:48;4.83;73.85
69393;SHT31;56582;44.624;20.378;2023-01-16T06:12:17;4.86;74.04
69393;SHT31;56582;44.624;20.378;2023-01-16T06:14:43;4.86;73.53
69393;SHT31;56582;44.624;20.378;2023-01-16T06:17:09;4.90;73.35
69393;SHT31;56582;44.624;20.378;2023-01-16T06:19:35;4.94;72.96
69393;SHT31;56582;44.624;20.378;2023-01-16T06:22:00;4.94;73.28
69393;SHT31;56582;44.624;20.378;2023-01-16T06:24:26;4.99;72.83
69393;SHT31;56582;44.624;20.378;2023-01-16T06:26:51;6.09;82.80
69393;SHT31;56582;44.624;20.378;2023-01-16T06:29:17;8.25;80.71
69393;SHT31;56582;44.624;20.378;2023-01-16T06:31:42;7.28;66.85
69393;SHT31;56582;44.624;20.378;2023-01-16T06:34:08;6.45;67.65
69393;SHT31;56582;44.624;20.378;2023-01-16T06:36:33;5.93;69.37
69393;SHT31;56582;44.624;20.378;2023-01-16T06:38:59;5.59;70.52
69393;SHT31;56582;44.624;20.378;2023-01-16T06:41:24;5.47;70.75
69393;SHT31;56582;44.624;20.378;2023-01-16T06:43:50;5.42;71.35
69393;SHT31;56582;44.624;20.378;2023-01-16T06:46:15;5.37;71.22
69393;SHT31;56582;44.624;20.378;2023-01-16T06:48:41;5.51;70.70
69393;SHT31;56582;44.624;20.378;2023-01-16T06:51:07;5.55;70.17
69393;SHT31;56582;44.624;20.378;2023-01-16T06:53:34;5.68;69.65
69393;SHT31;56582;44.624;20.378;2023-01-16T06:56:00;5.72;69.99
69393;SHT31;56582;44.624;20.378;2023-01-16T06:58:25;5.70;69.62
69393;SHT31;56582;44.624;20.378;2023-01-16T07:00:50;5.65;70.13
69393;SHT31;56582;44.624;20.378;2023-01-16T07:03:17;5.63;70.73
69393;SHT31;56582;44.624;20.378;2023-01-16T07:05:44;5.54;71.43
69393;SHT31;56582;44.624;20.378;2023-01-16T07:08:10;5.60;70.50
69393;SHT31;56582;44.624;20.378;2023-01-16T07:10:36;5.66;70.59
69393;SHT31;56582;44.624;20.378;2023-01-16T07:13:01;5.73;70.58
69393;SHT31;56582;44.624;20.378;2023-01-16T07:15:27;5.75;70.57
69393;SHT31;56582;44.624;20.378;2023-01-16T07:18:13;5.72;70.73
69393;SHT31;56582;44.624;20.378;2023-01-16T07:21:00;5.75;71.22
69393;SHT31;56582;44.624;20.378;2023-01-16T07:23:48;5.95;70.78
69393;SHT31;56582;44.624;20.378;2023-01-16T07:26:15;5.89;71.45
69393;SHT31;56582;44.624;20.378;2023-01-16T07:28:45;5.80;73.38
69393;SHT31;56582;44.624;20.378;2023-01-16T07:31:11;5.65;73.48
69393;SHT31;56582;44.624;20.378;2023-01-16T07:33:37;5.59;73.75
69393;SHT31;56582;44.624;20.378;2023-01-16T07:36:03;5.62;74.17
69393;SHT31;56582;44.624;20.378;2023-01-16T07:38:28;5.63;73.51
69393;SHT31;56582;44.624;20.378;2023-01-16T07:40:54;5.66;74.04
69393;SHT31;56582;44.624;20.378;2023-01-16T07:43:19;5.73;73.50
69393;SHT31;56582;44.624;20.378;2023-01-16T07:45:44;5.83;73.52
69393;SHT31;56582;44.624;20.378;2023-01-16T07:48:17;5.95;72.80
69393;SHT31;56582;44.624;20.378;2023-01-16T07:50:51;6.06;72.42
69393;SHT31;56582;44.624;20.378;2023-01-16T07:53:18;6.14;72.28
69393;SHT31;56582;44.624;20.378;2023-01-16T07:55:47;6.27;73.07
69393;SHT31;56582;44.624;20.378;2023-01-16T07:58:13;6.40;71.61
69393;SHT31;56582;44.624;20.378;2023-01-16T08:00:39;6.63;71.40
69393;SHT31;56582;44.624;20.378;2023-01-16T08:03:04;6.75;71.76
69393;SHT31;56582;44.624;20.378;2023-01-16T08:05:30;6.93;70.62
69393;SHT31;56582;44.624;20.378;2023-01-16T08:07:55;6.85;70.78
69393;SHT31;56582;44.624;20.378;2023-01-16T08:10:21;6.72;72.05
69393;SHT31;56582;44.624;20.378;2023-01-16T08:12:46;6.84;70.50
69393;SHT31;56582;44.624;20.378;2023-01-16T08:15:11;6.79;71.40
69393;SHT31;56582;44.624;20.378;2023-01-16T08:17:39;6.96;71.50
69393;SHT31;56582;44.624;20.378;2023-01-16T08:20:06;6.93;71.13
69393;SHT31;56582;44.624;20.378;2023-01-16T08:22:32;7.02;71.21
69393;SHT31;56582;44.624;20.378;2023-01-16T08:24:58;7.07;71.74
69393;SHT31;56582;44.624;20.378;2023-01-16T08:27:23;7.02;71.96
69393;SHT31;56582;44.624;20.378;2023-01-16T08:29:48;6.86;71.73
69393;SHT31;56582;44.624;20.378;2023-01-16T08:32:14;6.96;72.22
69393;SHT31;56582;44.624;20.378;2023-01-16T08:34:41;6.86;72.23
69393;SHT31;56582;44.624;20.378;2023-01-16T08:37:07;6.79;72.61
69393;SHT31;56582;44.624;20.378;2023-01-16T08:39:38;6.71;72.38
69393;SHT31;56582;44.624;20.378;2023-01-16T08:42:04;6.81;72.31
69393;SHT31;56582;44.624;20.378;2023-01-16T08:44:48;6.86;72.88
69393;SHT31;56582;44.624;20.378;2023-01-16T08:47:32;6.88;72.42
69393;SHT31;56582;44.624;20.378;2023-01-16T08:50:17;6.84;73.03
69393;SHT31;56582;44.624;20.378;2023-01-16T08:53:02;6.84;72.51
69393;SHT31;56582;44.624;20.378;2023-01-16T08:55:28;6.85;72.86
69393;SHT31;56582;44.624;20.378;2023-01-16T08:57:53;6.89;72.81
69393;SHT31;56582;44.624;20.378;2023-01-16T09:00:20;6.92;72.84
69393;SHT31;56582;44.624;20.378;2023-01-16T09:02:46;6.89;73.06
69393;SHT31;56582;44.624;20.378;2023-01-16T09:05:12;6.89;73.66
69393;SHT31;56582;44.624;20.378;2023-01-16T09:07:39;6.89;73.38
69393;SHT31;56582;44.624;20.378;2023-01-16T09:10:04;6.88;73.40
69393;SHT31;56582;44.624;20.378;2023-01-16T09:12:30;6.89;73.94
69393;SHT31;56582;44.624;20.378;2023-01-16T09:15:14;6.92;73.55
69393;SHT31;56582;44.624;20.378;2023-01-16T09:17:39;6.93;73.18
69393;SHT31;56582;44.624;20.378;2023-01-16T09:20:05;6.89;73.74
69393;SHT31;56582;44.624;20.378;2023-01-16T09:22:31;6.92;73.21
69393;SHT31;56582;44.624;20.378;2023-01-16T09:24:58;6.95;73.95
69393;SHT31;56582;44.624;20.378;2023-01-16T09:27:23;6.96;73.18
69393;SHT31;56582;44.624;20.378;2023-01-16T09:29:50;6.97;73.68
69393;SHT31;56582;44.624;20.378;2023-01-16T09:32:15;6.97;73.51
69393;SHT31;56582;44.624;20.378;2023-01-16T09:34:42;7.03;72.88
69393;SHT31;56582;44.624;20.378;2023-01-16T09:37:08;7.07;72.31
69393;SHT31;56582;44.624;20.378;2023-01-16T09:39:34;7.10;71.92
69393;SHT31;56582;44.624;20.378;2023-01-16T09:42:15;7.17;71.67
69393;SHT31;56582;44.624;20.378;2023-01-16T09:45:13;7.27;71.42
69393;SHT31;56582;44.624;20.378;2023-01-16T09:47:41;7.47;70.61
69393;SHT31;56582;44.624;20.378;2023-01-16T09:52:57;7.58;69.32
69393;SHT31;56582;44.624;20.378;2023-01-16T09:55:45;7.67;68.32
69393;SHT31;56582;44.624;20.378;2023-01-16T09:58:29;7.63;68.64
69393;SHT31;56582;44.624;20.378;2023-01-16T10:01:18;7.65;68.33
69393;SHT31;56582;44.624;20.378;2023-01-16T10:03:45;7.78;68.20
69393;SHT31;56582;44.624;20.378;2023-01-16T10:09:10;7.67;68.85
69393;SHT31;56582;44.624;20.378;2023-01-16T10:11:57;7.65;69.34
69393;SHT31;56582;44.624;20.378;2023-01-16T10:14:27;7.64;68.87
69393;SHT31;56582;44.624;20.378;2023-01-16T10:19:52;7.51;70.06
69393;SHT31;56582;44.624;20.378;2023-01-16T10:30:18;7.31;71.39
69393;SHT31;56582;44.624;20.378;2023-01-16T10:32:56;7.58;70.57
69393;SHT31;56582;44.624;20.378;2023-01-16T10:35:40;7.28;72.03
69393;SHT31;56582;44.624;20.378;2023-01-16T10:38:40;7.19;72.86
69393;SHT31;56582;44.624;20.378;2023-01-16T10:41:40;7.19;72.68
69393;SHT31;56582;44.624;20.378;2023-01-16T10:47:50;7.19;73.63
69393;SHT31;56582;44.624;20.378;2023-01-16T10:50:27;7.16;73.78
69393;SHT31;56582;44.624;20.378;2023-01-16T10:52:53;7.26;77.54
69393;SHT31;56582;44.624;20.378;2023-01-16T10:55:19;7.24;73.92
69393;SHT31;56582;44.624;20.378;2023-01-16T10:57:49;7.19;73.87
69393;SHT31;56582;44.624;20.378;2023-01-16T11:00:19;7.22;73.51
69393;SHT31;56582;44.624;20.378;2023-01-16T11:02:48;7.28;73.61
69393;SHT31;56582;44.624;20.378;2023-01-16T11:05:29;7.22;73.67
69393;SHT31;56582;44.624;20.378;2023-01-16T11:08:01;7.27;73.76
69393;SHT31;56582;44.624;20.378;2023-01-16T11:10:28;7.23;73.96
69393;SHT31;56582;44.624;20.378;2023-01-16T11:12:54;7.23;74.08
69393;SHT31;56582;44.624;20.378;2023-01-16T11:15:39;7.27;73.79
69393;SHT31;56582;44.624;20.378;2023-01-16T11:18:29;7.20;74.39
69393;SHT31;56582;44.624;20.378;2023-01-16T11:21:22;7.19;74.22
69393;SHT31;56582;44.624;20.378;2023-01-16T11:24:56;7.23;74.07
69393;SHT31;56582;44.624;20.378;2023-01-16T11:26:52;7.30;74.41
69393;SHT31;56582;44.624;20.378;2023-01-16T11:29:20;7.19;74.64
69393;SHT31;56582;44.624;20.378;2023-01-16T11:32:00;7.19;74.68
69393;SHT31;56582;44.624;20.378;2023-01-16T11:34:29;7.27;74.38
69393;SHT31;56582;44.624;20.378;2023-01-16T11:36:57;7.23;74.59
69393;SHT31;56582;44.624;20.378;2023-01-16T11:39:26;7.31;74.26
69393;SHT31;56582;44.624;20.378;2023-01-16T11:41:55;7.27;74.74
69393;SHT31;56582;44.624;20.378;2023-01-16T11:44:26;7.20;75.41
69393;SHT31;56582;44.624;20.378;2023-01-16T11:47:16;7.20;75.02
69393;SHT31;56582;44.624;20.378;2023-01-16T11:49:52;7.17;75.58
69393;SHT31;56582;44.624;20.378;2023-01-16T11:52:21;7.15;75.78
69393;SHT31;56582;44.624;20.378;2023-01-16T11:54:58;7.13;76.13
69393;SHT31;56582;44.624;20.378;2023-01-16T11:57:51;7.10;76.25
69393;SHT31;56582;44.624;20.378;2023-01-16T12:14:15;7.10;76.75
69393;SHT31;56582;44.624;20.378;2023-01-16T12:25:32;7.22;76.38
69393;SHT31;56582;44.624;20.378;2023-01-16T12:28:09;7.28;76.26
69393;SHT31;56582;44.624;20.378;2023-01-16T12:42:04;7.36;76.03
69393;SHT31;56582;44.624;20.378;2023-01-16T12:55:22;7.68;75.20
69393;SHT31;56582;44.624;20.378;2023-01-16T12:58:08;7.58;75.80
69393;SHT31;56582;44.624;20.378;2023-01-16T13:01:01;7.54;75.71
69393;SHT31;56582;44.624;20.378;2023-01-16T13:03:40;7.51;75.90
69393;SHT31;56582;44.624;20.378;2023-01-16T13:06:11;7.53;75.86
69393;SHT31;56582;44.624;20.378;2023-01-16T13:08:45;7.51;76.39
69393;SHT31;56582;44.624;20.378;2023-01-16T13:11:20;7.63;75.67
69393;SHT31;56582;44.624;20.378;2023-01-16T13:14:09;7.68;75.53
69393;SHT31;56582;44.624;20.378;2023-01-16T13:21:50;7.78;74.48
69393;SHT31;56582;44.624;20.378;2023-01-16T13:24:21;7.86;74.82
69393;SHT31;56582;44.624;20.378;2023-01-16T13:26:56;7.99;73.85
69393;SHT31;56582;44.624;20.378;2023-01-16T13:29:50;7.79;74.45
69393;SHT31;56582;44.624;20.378;2023-01-16T13:32:39;7.88;74.26
69393;SHT31;56582;44.624;20.378;2023-01-16T13:35:25;7.94;74.12
69393;SHT31;56582;44.624;20.378;2023-01-16T13:43:57;7.95;74.05
69393;SHT31;56582;44.624;20.378;2023-01-16T13:46:39;7.94;73.89
69393;SHT31;56582;44.624;20.378;2023-01-16T13:49:05;8.06;74.32
69393;SHT31;56582;44.624;20.378;2023-01-16T13:51:41;8.09;73.85
69393;SHT31;56582;44.624;20.378;2023-01-16T13:54:14;8.09;73.97
69393;SHT31;56582;44.624;20.378;2023-01-16T13:56:40;8.23;73.40
69393;SHT31;56582;44.624;20.378;2023-01-16T13:59:11;8.23;73.41
69393;SHT31;56582;44.624;20.378;2023-01-16T14:04:26;8.21;73.20
69393;SHT31;56582;44.624;20.378;2023-01-16T14:06:58;8.09;74.00
69393;SHT31;56582;44.624;20.378;2023-01-16T14:10:22;8.33;72.90
69393;SHT31;56582;44.624;20.378;2023-01-16T14:21:19;8.52;72.49
69393;SHT31;56582;44.624;20.378;2023-01-16T14:23:52;8.60;72.97
69393;SHT31;56582;44.624;20.378;2023-01-16T14:31:41;8.59;73.63
69393;SHT31;56582;44.624;20.378;2023-01-16T14:34:17;8.56;72.80
69393;SHT31;56582;44.624;20.378;2023-01-16T14:36:44;8.49;73.35
69393;SHT31;56582;44.624;20.378;2023-01-16T14:42:01;8.49;74.01
69393;SHT31;56582;44.624;20.378;2023-01-16T14:56:58;8.47;74.48
69393;SHT31;56582;44.624;20.378;2023-01-16T15:02:00;8.65;73.98
69393;SHT31;56582;44.624;20.378;2023-01-16T15:07:43;8.64;73.93
69393;SHT31;56582;44.624;20.378;2023-01-16T15:10:20;8.77;73.57
69393;SHT31;56582;44.624;20.378;2023-01-16T15:12:48;8.80;73.51
69393;SHT31;56582;44.624;20.378;2023-01-16T15:15:24;8.80;73.71
69393;SHT31;56582;44.624;20.378;2023-01-16T15:17:52;8.91;73.22
69393;SHT31;56582;44.624;20.378;2023-01-16T15:20:37;8.78;73.80
69393;SHT31;56582;44.624;20.378;2023-01-16T15:23:33;8.75;73.66
69393;SHT31;56582;44.624;20.378;2023-01-16T15:28:41;8.77;74.04
69393;SHT31;56582;44.624;20.378;2023-01-16T15:31:16;8.68;74.23
69393;SHT31;56582;44.624;20.378;2023-01-16T15:33:42;8.60;74.36
69393;SHT31;56582;44.624;20.378;2023-01-16T15:36:32;8.68;73.98
69393;SHT31;56582;44.624;20.378;2023-01-16T15:39:00;8.61;74.45
69393;SHT31;56582;44.624;20.378;2023-01-16T15:41:31;8.70;74.41
69393;SHT31;56582;44.624;20.378;2023-01-16T15:44:22;8.59;74.52
69393;SHT31;56582;44.624;20.378;2023-01-16T15:52:45;8.59;74.79
69393;SHT31;56582;44.624;20.378;2023-01-16T15:55:29;8.54;75.45
69393;SHT31;56582;44.624;20.378;2023-01-16T15:58:01;8.47;76.08
69393;SHT31;56582;44.624;20.378;2023-01-16T16:00:33;8.29;76.30
69393;SHT31;56582;44.624;20.378;2023-01-16T16:03:17;8.28;76.61
69393;SHT31;56582;44.624;20.378;2023-01-16T16:05:48;8.34;76.36
69393;SHT31;56582;44.624;20.378;2023-01-16T16:08:20;8.39;76.17
69393;SHT31;56582;44.624;20.378;2023-01-16T16:10:46;8.40;76.08
69393;SHT31;56582;44.624;20.378;2023-01-16T16:13:31;8.47;75.86
69393;SHT31;56582;44.624;20.378;2023-01-16T16:16:00;8.44;75.95
69393;SHT31;56582;44.624;20.378;2023-01-16T16:18:55;8.47;76.36
69393;SHT31;56582;44.624;20.378;2023-01-16T16:21:23;8.60;75.65
69393;SHT31;56582;44.624;20.378;2023-01-16T16:24:04;8.42;76.19
69393;SHT31;56582;44.624;20.378;2023-01-16T16:26:31;8.42;76.67
69393;SHT31;56582;44.624;20.378;2023-01-16T16:29:01;8.53;75.95
69393;SHT31;56582;44.624;20.378;2023-01-16T16:31:29;8.43;76.30
69393;SHT31;56582;44.624;20.378;2023-01-16T16:34:11;8.67;76.51
69393;SHT31;56582;44.624;20.378;2023-01-16T16:36:48;8.64;77.16
69393;SHT31;56582;44.624;20.378;2023-01-16T16:39:43;8.61;77.93
69393;SHT31;56582;44.624;20.378;2023-01-16T16:42:46;8.52;77.74
69393;SHT31;56582;44.624;20.378;2023-01-16T16:47:45;8.50;77.48
69393;SHT31;56582;44.624;20.378;2023-01-16T16:50:33;8.60;77.48
69393;SHT31;56582;44.624;20.378;2023-01-16T16:53:22;8.40;78.17
69393;SHT31;56582;44.624;20.378;2023-01-16T16:55:54;8.36;78.82
69393;SHT31;56582;44.624;20.378;2023-01-16T16:58:31;8.17;79.53
69393;SHT31;56582;44.624;20.378;2023-01-16T17:00:56;8.12;79.58
69393;SHT31;56582;44.624;20.378;2023-01-16T17:03:24;8.33;78.87
69393;SHT31;56582;44.624;20.378;2023-01-16T17:05:51;8.23;78.89
69393;SHT31;56582;44.624;20.378;2023-01-16T17:08:27;8.34;78.47
69393;SHT31;56582;44.624;20.378;2023-01-16T17:10:56;8.25;78.36
69393;SHT31;56582;44.624;20.378;2023-01-16T17:13:24;8.09;78.74
69393;SHT31;56582;44.624;20.378;2023-01-16T17:15:53;7.96;79.33
69393;SHT31;56582;44.624;20.378;2023-01-16T17:18:19;7.94;78.88
69393;SHT31;56582;44.624;20.378;2023-01-16T17:20:45;8.02;78.59
69393;SHT31;56582;44.624;20.378;2023-01-16T17:23:16;7.88;79.14
69393;SHT31;56582;44.624;20.378;2023-01-16T17:25:43;7.84;79.07
69393;SHT31;56582;44.624;20.378;2023-01-16T17:28:09;7.82;79.54
69393;SHT31;56582;44.624;20.378;2023-01-16T17:30:35;7.75;79.47
69393;SHT31;56582;44.624;20.378;2023-01-16T17:33:06;7.73;79.68
69393;SHT31;56582;44.624;20.378;2023-01-16T17:35:40;7.77;79.44
69393;SHT31;56582;44.624;20.378;2023-01-16T17:38:14;7.78;79.31
69393;SHT31;56582;44.624;20.378;2023-01-16T17:40:41;7.92;78.99
69393;SHT31;56582;44.624;20.378;2023-01-16T17:43:14;7.78;79.19
69393;SHT31;56582;44.624;20.378;2023-01-16T17:45:57;7.82;78.94
69393;SHT31;56582;44.624;20.378;2023-01-16T17:48:27;7.85;78.87
69393;SHT31;56582;44.624;20.378;2023-01-16T17:50:53;7.77;78.99
69393;SHT31;56582;44.624;20.378;2023-01-16T17:53:20;7.82;78.95
69393;SHT31;56582;44.624;20.378;2023-01-16T17:55:48;7.78;79.17
69393;SHT31;56582;44.624;20.378;2023-01-16T18:00:56;7.81;78.77
69393;SHT31;56582;44.624;20.378;2023-01-16T18:03:21;7.78;78.96
69393;SHT31;56582;44.624;20.378;2023-01-16T18:05:47;7.92;78.27
69393;SHT31;56582;44.624;20.378;2023-01-16T18:08:12;7.86;78.59
69393;SHT31;56582;44.624;20.378;2023-01-16T18:10:39;7.98;78.50
69393;SHT31;56582;44.624;20.378;2023-01-16T18:13:04;8.05;78.07
69393;SHT31;56582;44.624;20.378;2023-01-16T18:15:48;8.07;77.91
69393;SHT31;56582;44.624;20.378;2023-01-16T18:18:32;8.21;77.58
69393;SHT31;56582;44.624;20.378;2023-01-16T18:20:58;8.21;77.84
69393;SHT31;56582;44.624;20.378;2023-01-16T18:23:42;8.26;77.83
69393;SHT31;56582;44.624;20.378;2023-01-16T18:26:07;8.12;78.07
69393;SHT31;56582;44.624;20.378;2023-01-16T18:28:33;8.10;78.16
69393;SHT31;56582;44.624;20.378;2023-01-16T18:31:05;8.05;77.96
69393;SHT31;56582;44.624;20.378;2023-01-16T18:33:34;8.03;77.96
69393;SHT31;56582;44.624;20.378;2023-01-16T18:36:01;7.92;78.26
69393;SHT31;56582;44.624;20.378;2023-01-16T18:38:27;8.06;77.85
69393;SHT31;56582;44.624;20.378;2023-01-16T18:41:11;7.95;78.19
69393;SHT31;56582;44.624;20.378;2023-01-16T18:43:54;8.01;78.24
69393;SHT31;56582;44.624;20.378;2023-01-16T18:46:38;8.02;78.21
69393;SHT31;56582;44.624;20.378;2023-01-16T18:49:22;8.01;78.05
69393;SHT31;56582;44.624;20.378;2023-01-16T18:52:20;7.92;78.28
69393;SHT31;56582;44.624;20.378;2023-01-16T18:55:13;7.99;78.28
69393;SHT31;56582;44.624;20.378;2023-01-16T18:57:59;7.99;78.15
69393;SHT31;56582;44.624;20.378;2023-01-16T19:00:44;8.03;77.85